INFORMACIÓN METAR y TAF
METAR FOR LELL
ADDS - METARS form results

(2005 UTC 29 November 2021)
Data provider http://aviationweather.gov/metar/data/
 
METAR text: LELL 292000Z AUTO 03005KT 330V070 CAVOK 07/00 Q1017
Conditions at: LELL (SABADELL , ES) observed 2000 UTC 29 November 2021
Temperature: 7.0°C (45°F)
Dewpoint: 0.0°C (32°F) [RH = 61%]
Pressure (altimeter): 30.03 inches Hg (1017.0 mb)
Winds: from the NNE (30 degrees) at 6 MPH (5 knots; 2.6 m/s)
Visibility: 6 or more miles (10+ km)
Ceiling: ceiling and visibility are OK
Clouds: unknown
Weather: no significant weather observed at this time

METAR text: LELL 291930Z AUTO 03006KT 340V080 CAVOK 08/01 Q1017
Conditions at: LELL (SABADELL , ES) observed 1930 UTC 29 November 2021
Temperature: 8.0°C (46°F)
Dewpoint: 1.0°C (34°F) [RH = 61%]
Pressure (altimeter): 30.03 inches Hg (1017.0 mb)
Winds: from the NNE (30 degrees) at 7 MPH (6 knots; 3.1 m/s)
Visibility: 6 or more miles (10+ km)
Ceiling: ceiling and visibility are OK
Clouds: unknown
Weather: no significant weather observed at this time

Forecast for: LELL (SABADELL , ES)
Text: TAF LELL 291400Z 2915/3015 26009KT 9999 FEW030 TX11/3013Z TN02/3006Z
Forecast period: 1500 UTC 29 November 2021 to 1500 UTC 30 November 2021
Forecast type: FROM: standard forecast or significant change
Winds: from the W (260 degrees) at 10 MPH (9 knots; 4.6 m/s)
Visibility: 6 or more miles (10+ km)
Ceiling: at least 12,000 feet AGL
Clouds: few clouds at 3000 feet AGL
Weather: no significant weather forecast for this period
Text: BECMG 2915/2917 VRB03KT
Forecast period: 1500 UTC 29 November 2021 to 1500 UTC 30 November 2021
Forecast type: BECOMING: Conditions expected to become as follows by 1700 UTC 29 November 2021
Winds: variable direction winds at 3 MPH (3 knots; 1.5 m/s)
Visibility: 6 or more miles (10+ km)
Ceiling: at least 12,000 feet AGL
Clouds: few clouds at 3000 feet AGL
Weather: no significant weather forecast for this period

 MAPA DE AEROPUERTO

 INFORMACIÓN DE PISTA
Pista 13 Longitud 2953 ft Ancho 0 ft
Elevación 485 ft Umbral desplazado 0 ft Rumbo de pista 0
Pista 31 Longitud 2953 ft Ancho 0 ft
Elevación 445 ft Umbral desplazado 0 ft Rumbo de pista 0

 FRECUANCIAS DEL AEROPUERTO

 RADIO AYUDAS DEL AEROPUERTO
Tipo NDB Nombre Sabadell Frecuencia 367 KHZ



Powered by Virtual Airlines Manager [v2.6.2]